createdAt,value
2024-01-16T00:00:18.677Z,0
2024-01-16T00:01:18.952Z,0
2024-01-16T00:02:19.599Z,0
2024-01-16T00:03:19.880Z,0
2024-01-16T00:04:20.073Z,0
2024-01-16T00:05:20.371Z,0
2024-01-16T00:06:20.663Z,0
2024-01-16T00:07:20.895Z,0
2024-01-16T00:08:21.060Z,0
2024-01-16T00:09:21.306Z,0
2024-01-16T00:10:21.460Z,0
2024-01-16T00:11:21.634Z,0
2024-01-16T00:12:21.859Z,0
2024-01-16T00:13:22.027Z,0
2024-01-16T00:14:22.194Z,0
2024-01-16T00:15:22.433Z,0
2024-01-16T00:16:22.574Z,0
2024-01-16T00:17:22.795Z,0
2024-01-16T00:18:23.168Z,0
2024-01-16T00:19:23.732Z,0
2024-01-16T00:20:24.049Z,0
2024-01-16T00:21:24.315Z,0
2024-01-16T00:22:24.483Z,0
2024-01-16T00:23:24.770Z,0
2024-01-16T00:24:25.031Z,0
2024-01-16T00:25:25.189Z,0
2024-01-16T00:26:25.372Z,0
2024-01-16T00:27:25.758Z,0
2024-01-16T00:28:25.905Z,0
2024-01-16T00:29:26.084Z,0
2024-01-16T00:30:26.366Z,0
2024-01-16T00:31:26.667Z,0
2024-01-16T00:32:26.858Z,0
2024-01-16T00:33:27.296Z,0
2024-01-16T00:34:27.741Z,0
2024-01-16T00:35:28.239Z,0
2024-01-16T00:36:28.478Z,0
2024-01-16T00:37:28.665Z,0
2024-01-16T00:38:28.865Z,0
2024-01-16T00:39:29.145Z,0
2024-01-16T00:40:29.494Z,0
2024-01-16T00:41:29.713Z,0
2024-01-16T00:42:29.922Z,0
2024-01-16T00:43:30.078Z,0
2024-01-16T00:44:30.263Z,0
2024-01-16T00:45:30.563Z,0
2024-01-16T00:46:30.708Z,0
2024-01-16T00:47:30.956Z,0
2024-01-16T00:48:31.438Z,0
2024-01-16T00:49:31.935Z,0
2024-01-16T00:50:32.233Z,0
2024-01-16T00:51:32.586Z,0
2024-01-16T00:52:32.771Z,0
2024-01-16T00:53:32.960Z,0
2024-01-16T00:54:33.217Z,0
2024-01-16T00:55:33.385Z,0
2024-01-16T00:56:33.554Z,0
2024-01-16T00:57:33.798Z,0
2024-01-16T00:58:33.954Z,0
2024-01-16T00:59:34.162Z,0
2024-01-16T01:00:34.518Z,0
2024-01-16T01:01:34.684Z,0
2024-01-16T01:02:34.843Z,0
2024-01-16T01:03:35.300Z,0
2024-01-16T01:04:35.883Z,0
2024-01-16T01:05:36.406Z,0
2024-01-16T01:06:36.962Z,0
2024-01-16T01:07:37.125Z,0
2024-01-16T01:08:37.302Z,0
2024-01-16T01:09:37.602Z,0
2024-01-16T01:10:37.747Z,0
2024-01-16T01:11:38.085Z,0
2024-01-16T01:12:38.409Z,0
2024-01-16T01:13:38.570Z,0
2024-01-16T01:14:38.831Z,0
2024-01-16T01:15:39.307Z,0
2024-01-16T01:16:39.464Z,0
2024-01-16T01:17:39.637Z,0
2024-01-16T01:18:40.096Z,0
2024-01-16T01:19:40.598Z,0
2024-01-16T01:20:40.916Z,0
2024-01-16T01:21:41.245Z,0
2024-01-16T01:22:41.402Z,0
2024-01-16T01:23:41.593Z,0
2024-01-16T01:24:41.932Z,0
2024-01-16T01:25:42.101Z,0
2024-01-16T01:26:42.291Z,0
2024-01-16T01:27:42.769Z,0
2024-01-16T01:28:42.962Z,0
2024-01-16T01:29:43.229Z,0
2024-01-16T01:30:43.775Z,0
2024-01-16T01:31:44.027Z,0
2024-01-16T01:32:44.198Z,0
2024-01-16T01:33:44.676Z,0
2024-01-16T01:34:45.146Z,0
2024-01-16T01:35:45.373Z,0
2024-01-16T01:36:45.710Z,0
2024-01-16T01:37:45.900Z,0
2024-01-16T01:38:46.116Z,0
2024-01-16T01:39:46.494Z,0
2024-01-16T01:40:46.649Z,0
2024-01-16T01:41:46.818Z,0
2024-01-16T01:42:47.115Z,0
2024-01-16T01:43:47.257Z,0
2024-01-16T01:44:47.460Z,0
2024-01-16T01:45:47.755Z,0
2024-01-16T01:46:47.917Z,0
2024-01-16T01:47:48.134Z,0
2024-01-16T01:48:48.575Z,0
2024-01-16T01:49:49.342Z,0
2024-01-16T01:50:49.576Z,0
2024-01-16T01:51:49.924Z,0
2024-01-16T01:52:50.105Z,0
2024-01-16T01:53:50.303Z,0
2024-01-16T01:54:50.549Z,0
2024-01-16T01:55:50.696Z,0
2024-01-16T01:56:50.888Z,0
2024-01-16T01:57:51.166Z,0
2024-01-16T01:58:51.314Z,0
2024-01-16T01:59:51.485Z,0
2024-01-16T02:00:51.834Z,0
2024-01-16T02:01:52.051Z,0
2024-01-16T02:02:52.293Z,0
2024-01-16T02:03:52.761Z,0
2024-01-16T02:04:53.053Z,0
2024-01-16T02:05:53.347Z,0
2024-01-16T02:06:53.851Z,0
2024-01-16T02:07:53.998Z,0
2024-01-16T02:08:54.181Z,0
2024-01-16T02:09:54.516Z,0
2024-01-16T02:10:54.674Z,0
2024-01-16T02:11:54.882Z,0
2024-01-16T02:12:55.322Z,0
2024-01-16T02:13:55.459Z,0
2024-01-16T02:14:55.622Z,0
2024-01-16T02:15:55.917Z,0
2024-01-16T02:16:56.070Z,0
2024-01-16T02:17:56.271Z,0
2024-01-16T02:18:56.702Z,0
2024-01-16T02:19:56.937Z,0
2024-01-16T02:20:57.089Z,0
2024-01-16T02:21:57.230Z,0
2024-01-16T02:22:57.404Z,0
2024-01-16T02:23:57.597Z,0
2024-01-16T02:24:57.867Z,0
2024-01-16T02:25:58.052Z,0
2024-01-16T02:26:58.366Z,0
2024-01-16T02:27:58.642Z,0
2024-01-16T02:28:58.776Z,0
2024-01-16T02:29:58.937Z,0
2024-01-16T02:30:59.134Z,0
2024-01-16T02:31:59.470Z,0
2024-01-16T02:32:59.761Z,0
2024-01-16T02:34:00.297Z,0
2024-01-16T02:35:00.889Z,0
2024-01-16T02:36:01.073Z,0
2024-01-16T02:37:01.237Z,0
2024-01-16T02:38:01.376Z,0
2024-01-16T02:39:01.594Z,0
2024-01-16T02:40:01.736Z,0
2024-01-16T02:41:01.864Z,0
2024-01-16T02:42:02.026Z,0
2024-01-16T02:43:02.197Z,0
2024-01-16T02:44:02.366Z,0
2024-01-16T02:45:02.530Z,0
2024-01-16T02:46:02.674Z,0
2024-01-16T02:47:02.843Z,0
2024-01-16T02:48:03.144Z,0
2024-01-16T02:49:03.634Z,0
2024-01-16T02:50:03.970Z,0
2024-01-16T02:51:04.397Z,0
2024-01-16T02:52:04.563Z,0
2024-01-16T02:53:04.805Z,0
2024-01-16T02:54:05.256Z,0
2024-01-16T02:55:05.400Z,0
2024-01-16T02:56:05.591Z,0
2024-01-16T02:57:05.948Z,0
2024-01-16T02:58:06.103Z,0
2024-01-16T02:59:06.272Z,0
2024-01-16T03:00:06.537Z,0
2024-01-16T03:01:06.715Z,0
2024-01-16T03:02:07.051Z,0
2024-01-16T03:03:07.353Z,0
2024-01-16T03:04:07.816Z,0
2024-01-16T03:05:08.030Z,0
2024-01-16T03:06:08.574Z,0
2024-01-16T03:07:09.046Z,0
2024-01-16T03:08:09.236Z,0
2024-01-16T03:09:09.799Z,0
2024-01-16T03:10:09.985Z,0
2024-01-16T03:11:10.170Z,0
2024-01-16T03:12:10.499Z,0
2024-01-16T03:13:10.695Z,0
2024-01-16T03:14:10.878Z,0
2024-01-16T03:15:11.196Z,0
2024-01-16T03:16:11.350Z,0
2024-01-16T03:17:11.522Z,0
2024-01-16T03:18:11.889Z,0
2024-01-16T03:19:12.608Z,0
2024-01-16T03:20:13.079Z,0
2024-01-16T03:21:13.341Z,0
2024-01-16T03:22:13.489Z,0
2024-01-16T03:23:13.658Z,0
2024-01-16T03:24:13.915Z,0
2024-01-16T03:25:14.129Z,0
2024-01-16T03:26:14.401Z,0
2024-01-16T03:27:14.682Z,0
2024-01-16T03:28:14.839Z,0
2024-01-16T03:29:15.007Z,0
2024-01-16T03:30:15.355Z,0
2024-01-16T03:31:15.885Z,0
2024-01-16T03:32:16.357Z,0
2024-01-16T03:33:16.729Z,0
2024-01-16T03:34:17.521Z,0
2024-01-16T03:35:17.793Z,0
2024-01-16T03:36:18.019Z,0
2024-01-16T03:37:18.171Z,0
2024-01-16T03:38:18.334Z,0
2024-01-16T03:39:18.593Z,0
2024-01-16T03:40:18.753Z,0
2024-01-16T03:41:18.963Z,0
2024-01-16T03:42:19.194Z,0
2024-01-16T03:43:19.337Z,0
2024-01-16T03:44:19.520Z,0
2024-01-16T03:45:19.761Z,0
2024-01-16T03:46:19.944Z,0
2024-01-16T03:47:20.130Z,0
2024-01-16T03:48:20.459Z,0
2024-01-16T03:49:21.122Z,0
2024-01-16T03:50:21.478Z,0
2024-01-16T03:51:21.748Z,0
2024-01-16T03:52:21.908Z,0
2024-01-16T03:53:22.072Z,0
2024-01-16T03:54:22.291Z,0
2024-01-16T03:55:22.466Z,0
2024-01-16T03:56:22.657Z,0
2024-01-16T03:57:22.992Z,0
2024-01-16T03:58:23.139Z,0
2024-01-16T03:59:23.321Z,0
2024-01-16T04:00:23.640Z,0
2024-01-16T04:01:23.778Z,0
2024-01-16T04:02:23.955Z,0
2024-01-16T04:03:24.229Z,0
2024-01-16T04:04:24.551Z,0
2024-01-16T04:05:24.873Z,0
2024-01-16T04:06:25.276Z,0
2024-01-16T04:07:25.805Z,0
2024-01-16T04:08:26.072Z,0
2024-01-16T04:09:26.315Z,0
2024-01-16T04:10:26.481Z,0
2024-01-16T04:11:26.667Z,0
2024-01-16T04:12:26.892Z,0
2024-01-16T04:13:27.032Z,0
2024-01-16T04:14:27.217Z,0
2024-01-16T04:15:27.482Z,0
2024-01-16T04:16:27.629Z,0
2024-01-16T04:17:27.810Z,0
2024-01-16T04:18:28.086Z,0
2024-01-16T04:19:28.486Z,0
2024-01-16T04:20:28.770Z,0
2024-01-16T04:21:29.045Z,0
2024-01-16T04:22:29.201Z,0
2024-01-16T04:23:29.385Z,0
2024-01-16T04:24:29.592Z,0
2024-01-16T04:25:29.742Z,0
2024-01-16T04:26:29.939Z,0
2024-01-16T04:27:30.180Z,0
2024-01-16T04:28:30.329Z,0
2024-01-16T04:29:30.509Z,0
2024-01-16T04:30:30.813Z,0
2024-01-16T04:31:31.115Z,0
2024-01-16T04:32:31.523Z,0
2024-01-16T04:33:32.355Z,0
2024-01-16T04:34:33.113Z,0
2024-01-16T04:35:33.347Z,0
2024-01-16T04:36:33.626Z,0
2024-01-16T04:37:33.784Z,0
2024-01-16T04:38:33.973Z,0
2024-01-16T04:39:34.271Z,0
2024-01-16T04:40:34.438Z,0
2024-01-16T04:41:34.626Z,0
2024-01-16T04:42:34.883Z,0
2024-01-16T04:43:35.090Z,0
2024-01-16T04:44:35.282Z,0
2024-01-16T04:45:35.717Z,0
2024-01-16T04:46:35.917Z,0
2024-01-16T04:47:36.235Z,0
2024-01-16T04:48:36.965Z,0
2024-01-16T04:49:37.357Z,0
2024-01-16T04:50:37.698Z,0
2024-01-16T04:51:37.993Z,0
2024-01-16T04:52:38.152Z,0
2024-01-16T04:53:38.403Z,0
2024-01-16T04:54:38.664Z,0
2024-01-16T04:55:38.814Z,0
2024-01-16T04:56:39.017Z,0
2024-01-16T04:57:39.271Z,0
2024-01-16T04:58:39.427Z,0
2024-01-16T04:59:39.611Z,0
2024-01-16T05:00:39.968Z,0
2024-01-16T05:01:40.231Z,0
2024-01-16T05:02:40.433Z,0
2024-01-16T05:03:40.796Z,0
2024-01-16T05:04:41.100Z,0
2024-01-16T05:05:41.346Z,0
2024-01-16T05:06:41.771Z,0
2024-01-16T05:07:42.538Z,0
2024-01-16T05:08:42.835Z,0
2024-01-16T05:09:43.072Z,0
2024-01-16T05:10:44.853Z,0
2024-01-16T05:11:46.094Z,0
2024-01-16T05:12:46.484Z,0
2024-01-16T05:13:46.636Z,0
2024-01-16T05:14:46.857Z,0
2024-01-16T05:15:47.344Z,0
2024-01-16T05:16:47.495Z,0
2024-01-16T05:17:47.759Z,0
2024-01-16T05:18:48.453Z,0
2024-01-16T05:19:48.837Z,0
2024-01-16T05:20:49.041Z,0
2024-01-16T05:21:49.407Z,0
2024-01-16T05:22:49.624Z,0
2024-01-16T05:23:49.845Z,0
2024-01-16T05:24:50.337Z,0
2024-01-16T05:25:50.512Z,0
2024-01-16T05:26:50.704Z,0
2024-01-16T05:27:51.180Z,0
2024-01-16T05:28:51.335Z,0
2024-01-16T05:29:51.507Z,0
2024-01-16T05:30:51.865Z,0
2024-01-16T05:31:52.295Z,0
2024-01-16T05:32:52.517Z,0
2024-01-16T05:33:52.990Z,0
2024-01-16T05:34:53.481Z,0
2024-01-16T05:35:53.659Z,0
2024-01-16T05:36:53.951Z,0
2024-01-16T05:37:54.112Z,0
2024-01-16T05:38:54.280Z,0
2024-01-16T05:39:54.607Z,0
2024-01-16T05:40:54.748Z,0
2024-01-16T05:41:55.012Z,0
2024-01-16T05:42:55.387Z,0
2024-01-16T05:43:55.543Z,0
2024-01-16T05:44:55.706Z,0
2024-01-16T05:45:56.006Z,0
2024-01-16T05:46:56.274Z,0
2024-01-16T05:47:56.474Z,0
2024-01-16T05:48:56.867Z,0
2024-01-16T05:49:57.412Z,0
2024-01-16T05:50:57.873Z,0
2024-01-16T05:51:58.099Z,0
2024-01-16T05:52:58.250Z,0
2024-01-16T05:53:58.387Z,0
2024-01-16T05:54:58.629Z,0
2024-01-16T05:55:58.850Z,0
2024-01-16T05:56:59.222Z,0
2024-01-16T05:57:59.610Z,0
2024-01-16T05:58:59.780Z,0
2024-01-16T05:59:59.927Z,0
2024-01-16T06:01:00.154Z,0
2024-01-16T06:02:00.583Z,0
2024-01-16T06:03:00.806Z,0
2024-01-16T06:04:00.969Z,0
2024-01-16T06:05:01.320Z,0
2024-01-16T06:06:01.592Z,0
2024-01-16T06:07:02.497Z,0
2024-01-16T06:08:02.769Z,0
2024-01-16T06:09:02.920Z,0
2024-01-16T06:10:04.605Z,0
2024-01-16T06:11:07.197Z,0
2024-01-16T06:12:07.533Z,0
2024-01-16T06:13:07.665Z,0
2024-01-16T06:14:07.816Z,0
2024-01-16T06:15:08.109Z,0
2024-01-16T06:16:08.301Z,0
2024-01-16T06:17:08.464Z,0
2024-01-16T06:18:08.773Z,0
2024-01-16T06:19:09.574Z,0
2024-01-16T06:20:10.250Z,0
2024-01-16T06:21:10.609Z,0
2024-01-16T06:22:10.772Z,0
2024-01-16T06:23:10.957Z,0
2024-01-16T06:24:11.232Z,0
2024-01-16T06:25:11.378Z,0
2024-01-16T06:26:11.564Z,0
2024-01-16T06:27:11.860Z,0
2024-01-16T06:28:12.034Z,0
2024-01-16T06:29:17.362Z,0
2024-01-16T06:30:36.092Z,0
2024-01-16T06:31:36.496Z,0
2024-01-16T06:32:36.730Z,0
2024-01-16T06:33:37.480Z,0
2024-01-16T06:34:38.205Z,0
2024-01-16T06:35:38.521Z,0
2024-01-16T06:36:38.974Z,0
2024-01-16T06:37:39.114Z,0
2024-01-16T06:38:39.285Z,0
2024-01-16T06:39:39.570Z,0
2024-01-16T06:40:39.719Z,0
2024-01-16T06:41:39.880Z,1
2024-01-16T06:42:40.227Z,3
2024-01-16T06:43:40.399Z,4
2024-01-16T06:44:40.617Z,6
2024-01-16T06:45:40.920Z,6
2024-01-16T06:46:41.086Z,8
2024-01-16T06:47:41.309Z,8
2024-01-16T06:48:41.912Z,11
2024-01-16T06:49:42.686Z,11
2024-01-16T06:50:43.076Z,15
2024-01-16T06:51:43.379Z,15
2024-01-16T06:52:43.539Z,20
2024-01-16T06:53:43.749Z,26
2024-01-16T06:54:44.092Z,26
2024-01-16T06:55:44.243Z,34
2024-01-16T06:56:44.437Z,34
2024-01-16T06:57:44.700Z,45
2024-01-16T06:58:44.880Z,45
2024-01-16T06:59:45.110Z,45
2024-01-16T07:00:45.398Z,59
2024-01-16T07:01:45.639Z,59
2024-01-16T07:02:45.922Z,59
2024-01-16T07:03:46.439Z,59
2024-01-16T07:04:46.669Z,77
2024-01-16T07:05:47.069Z,77
2024-01-16T07:06:47.485Z,77
2024-01-16T07:07:47.671Z,77
2024-01-16T07:08:47.905Z,77
2024-01-16T07:09:48.394Z,110
2024-01-16T07:10:48.532Z,110
2024-01-16T07:11:48.693Z,110
2024-01-16T07:12:49.050Z,110
2024-01-16T07:13:49.226Z,110
2024-01-16T07:14:49.386Z,150
2024-01-16T07:15:49.847Z,150
2024-01-16T07:16:49.988Z,150
2024-01-16T07:17:50.294Z,150
2024-01-16T07:18:50.793Z,200
2024-01-16T07:19:51.176Z,200
2024-01-16T07:20:51.570Z,260
2024-01-16T07:21:52.069Z,260
2024-01-16T07:22:52.272Z,260
2024-01-16T07:23:52.485Z,339.84
2024-01-16T07:24:52.997Z,339.84
2024-01-16T07:25:53.190Z,339.84
2024-01-16T07:26:53.403Z,339.84
2024-01-16T07:27:53.727Z,339.84
2024-01-16T07:28:53.901Z,449.92
2024-01-16T07:29:54.093Z,449.92
2024-01-16T07:30:54.556Z,449.92
2024-01-16T07:31:54.908Z,449.92
2024-01-16T07:32:55.179Z,589.76
2024-01-16T07:33:56.068Z,589.76
2024-01-16T07:34:56.984Z,589.76
2024-01-16T07:35:57.187Z,589.76
2024-01-16T07:36:57.380Z,589.76
2024-01-16T07:37:57.606Z,589.76
2024-01-16T07:38:57.828Z,769.92
2024-01-16T07:39:58.114Z,769.92
2024-01-16T07:40:58.267Z,769.92
2024-01-16T07:41:58.437Z,769.92
2024-01-16T07:42:58.711Z,769.92
2024-01-16T07:43:58.873Z,1019.52
2024-01-16T07:44:59.056Z,1019.52
2024-01-16T07:45:59.223Z,1019.52
2024-01-16T07:46:59.823Z,1019.52
2024-01-16T07:48:00.058Z,1019.52
2024-01-16T07:49:00.761Z,1019.52
2024-01-16T07:50:02.581Z,1338.88
2024-01-16T07:51:08.831Z,1379.84
2024-01-16T07:52:08.992Z,1379.84
2024-01-16T07:53:09.152Z,1379.84
2024-01-16T07:54:09.434Z,1379.84
2024-01-16T07:55:09.684Z,1379.84
2024-01-16T07:56:09.864Z,1379.84
2024-01-16T07:57:10.125Z,1799.68
2024-01-16T07:58:10.298Z,2339.84
2024-01-16T07:59:10.482Z,2339.84
2024-01-16T08:00:10.833Z,2339.84
2024-01-16T08:01:11.018Z,2339.84
2024-01-16T08:02:11.342Z,2339.84
2024-01-16T08:03:11.726Z,2339.84
2024-01-16T08:04:12.589Z,2339.84
2024-01-16T08:05:13.479Z,3138.56
2024-01-16T08:06:13.891Z,5555.2
2024-01-16T08:07:14.333Z,5555.2
2024-01-16T08:08:14.512Z,5555.2
2024-01-16T08:09:14.800Z,3737.6
2024-01-16T08:10:16.542Z,3737.6
2024-01-16T08:11:20.102Z,2698.24
2024-01-16T08:12:20.428Z,2599.68
2024-01-16T08:13:20.571Z,2599.68
2024-01-16T08:14:20.754Z,2599.68
2024-01-16T08:15:20.967Z,2599.68
2024-01-16T08:16:21.132Z,2599.68
2024-01-16T08:17:21.298Z,2599.68
2024-01-16T08:18:21.628Z,2599.68
2024-01-16T08:19:22.301Z,3379.2
2024-01-16T08:20:22.805Z,3379.2
2024-01-16T08:21:23.125Z,3379.2
2024-01-16T08:22:23.279Z,3379.2
2024-01-16T08:23:23.456Z,6077.44
2024-01-16T08:24:23.820Z,6077.44
2024-01-16T08:25:24.035Z,6077.44
2024-01-16T08:26:24.212Z,6077.44
2024-01-16T08:27:24.362Z,7976.96
2024-01-16T08:28:24.499Z,7976.96
2024-01-16T08:29:24.691Z,5519.36
2024-01-16T08:30:24.965Z,5519.36
2024-01-16T08:31:25.222Z,7695.36
2024-01-16T08:32:25.492Z,10199.04
2024-01-16T08:33:28.146Z,13598.72
2024-01-16T08:34:48.413Z,15196.16
2024-01-16T08:35:49.053Z,17797.12
2024-01-16T08:36:49.344Z,17797.12
2024-01-16T08:37:49.502Z,11991.04
2024-01-16T08:38:49.792Z,11991.04
2024-01-16T08:39:50.242Z,8376.32
2024-01-16T08:40:50.411Z,8376.32
2024-01-16T08:41:50.635Z,8376.32
2024-01-16T08:42:51.324Z,11591.68
2024-01-16T08:43:58.377Z,15790.08
2024-01-16T08:44:58.596Z,15790.08
2024-01-16T08:45:59.078Z,15790.08
2024-01-16T08:46:59.323Z,15790.08
2024-01-16T08:47:59.590Z,15790.08
2024-01-16T08:49:00.067Z,15790.08
2024-01-16T08:50:00.507Z,15790.08
2024-01-16T08:51:01.516Z,15790.08
2024-01-16T08:52:01.732Z,20592.64
2024-01-16T08:53:01.909Z,20592.64
2024-01-16T08:54:02.115Z,20592.64
2024-01-16T08:55:02.389Z,20592.64
2024-01-16T08:56:02.585Z,20592.64
2024-01-16T08:57:02.735Z,20592.64
2024-01-16T08:58:02.899Z,20592.64
2024-01-16T08:59:03.080Z,20592.64
2024-01-16T09:00:03.348Z,20592.64
2024-01-16T09:01:03.720Z,20592.64
2024-01-16T09:02:03.933Z,20592.64
2024-01-16T09:03:05.228Z,20592.64
2024-01-16T09:04:06.045Z,20592.64
2024-01-16T09:05:06.434Z,20592.64
2024-01-16T09:06:06.945Z,20592.64
2024-01-16T09:07:08.056Z,20592.64
2024-01-16T09:08:10.989Z,20592.64
2024-01-16T09:09:14.421Z,25784.32
2024-01-16T09:10:14.569Z,25784.32
2024-01-16T09:11:14.828Z,25784.32
2024-01-16T09:12:15.078Z,25784.32
2024-01-16T09:13:15.268Z,25784.32
2024-01-16T09:14:15.554Z,25784.32
2024-01-16T09:15:15.795Z,25784.32
2024-01-16T09:16:15.967Z,25784.32
2024-01-16T09:17:16.228Z,26787.84
2024-01-16T09:18:16.536Z,26787.84
2024-01-16T09:19:17.128Z,26787.84
2024-01-16T09:20:17.632Z,26787.84
2024-01-16T09:21:17.864Z,26787.84
2024-01-16T09:22:18.013Z,26787.84
2024-01-16T09:23:18.234Z,26787.84
2024-01-16T09:24:18.523Z,26787.84
2024-01-16T09:25:18.728Z,26787.84
2024-01-16T09:26:18.919Z,26787.84
2024-01-16T09:27:19.211Z,26787.84
2024-01-16T09:28:19.368Z,26787.84
2024-01-16T09:29:19.531Z,26787.84
2024-01-16T09:30:20.097Z,26787.84
2024-01-16T09:31:20.439Z,26787.84
2024-01-16T09:32:20.667Z,26787.84
2024-01-16T09:33:21.246Z,26787.84
2024-01-16T09:34:21.783Z,26787.84
2024-01-16T09:35:22.012Z,26787.84
2024-01-16T09:36:22.285Z,26787.84
2024-01-16T09:37:22.443Z,26787.84
2024-01-16T09:38:23.474Z,26787.84
2024-01-16T09:39:24.260Z,26787.84
2024-01-16T09:40:24.431Z,18595.84
2024-01-16T09:41:24.664Z,18595.84
2024-01-16T09:42:24.917Z,18595.84
2024-01-16T09:43:25.079Z,12994.56
2024-01-16T09:44:25.271Z,12994.56
2024-01-16T09:45:25.498Z,12994.56
2024-01-16T09:46:25.695Z,17397.76
2024-01-16T09:47:26.121Z,17397.76
2024-01-16T09:48:26.528Z,17397.76
2024-01-16T09:49:27.087Z,17397.76
2024-01-16T09:50:27.408Z,17397.76
2024-01-16T09:51:27.641Z,17397.76
2024-01-16T09:52:27.825Z,11991.04
2024-01-16T09:53:28.003Z,11991.04
2024-01-16T09:54:28.239Z,11991.04
2024-01-16T09:55:28.430Z,11991.04
2024-01-16T09:56:28.585Z,11991.04
2024-01-16T09:57:28.785Z,11991.04
2024-01-16T09:58:28.940Z,11991.04
2024-01-16T09:59:29.126Z,11991.04
2024-01-16T10:00:29.417Z,11991.04
2024-01-16T10:01:29.755Z,11991.04
2024-01-16T10:02:29.945Z,15994.88
2024-01-16T10:03:30.190Z,15994.88
2024-01-16T10:04:30.514Z,15994.88
2024-01-16T10:05:30.785Z,20992
2024-01-16T10:06:31.167Z,20992
2024-01-16T10:07:31.505Z,20992
2024-01-16T10:08:31.706Z,14592
2024-01-16T10:09:31.995Z,14592
2024-01-16T10:10:38.191Z,14592
2024-01-16T10:11:52.003Z,11591.68
2024-01-16T10:12:52.324Z,11591.68
2024-01-16T10:13:52.476Z,11591.68
2024-01-16T10:14:52.668Z,10199.04
2024-01-16T10:15:52.973Z,10199.04
2024-01-16T10:16:53.114Z,10199.04
2024-01-16T10:17:53.331Z,10199.04
2024-01-16T10:18:53.777Z,10199.04
2024-01-16T10:19:54.365Z,10199.04
2024-01-16T10:20:54.847Z,10199.04
2024-01-16T10:21:55.622Z,10199.04
2024-01-16T10:22:55.775Z,10199.04
2024-01-16T10:23:56.034Z,10199.04
2024-01-16T10:24:56.329Z,10199.04
2024-01-16T10:25:56.506Z,10199.04
2024-01-16T10:26:56.774Z,13393.92
2024-01-16T10:27:57.146Z,13393.92
2024-01-16T10:28:57.301Z,13393.92
2024-01-16T10:29:57.509Z,13393.92
2024-01-16T10:30:58.201Z,17797.12
2024-01-16T10:31:58.799Z,17797.12
2024-01-16T10:32:59.358Z,17797.12
2024-01-16T10:33:59.970Z,17797.12
2024-01-16T10:35:00.764Z,17797.12
2024-01-16T10:36:01.378Z,17797.12
2024-01-16T10:37:01.916Z,17797.12
2024-01-16T10:38:02.102Z,17797.12
2024-01-16T10:39:02.274Z,17797.12
2024-01-16T10:40:02.417Z,17797.12
2024-01-16T10:41:02.608Z,17797.12
2024-01-16T10:42:02.771Z,17797.12
2024-01-16T10:43:02.977Z,23388.16
2024-01-16T10:44:03.215Z,23388.16
2024-01-16T10:45:03.373Z,23388.16
2024-01-16T10:46:03.532Z,23388.16
2024-01-16T10:47:03.682Z,23388.16
2024-01-16T10:48:04.266Z,23388.16
2024-01-16T10:49:06.401Z,23388.16
2024-01-16T10:50:06.803Z,23388.16
2024-01-16T10:51:06.980Z,23388.16
2024-01-16T10:52:07.127Z,23388.16
2024-01-16T10:53:07.300Z,23388.16
2024-01-16T10:54:07.806Z,23388.16
2024-01-16T10:55:07.962Z,23388.16
2024-01-16T10:56:08.105Z,23388.16
2024-01-16T10:57:08.293Z,23388.16
2024-01-16T10:58:10.089Z,23388.16
2024-01-16T10:59:14.362Z,16793.6
2024-01-16T11:00:14.603Z,16199.68
2024-01-16T11:01:14.824Z,16199.68
2024-01-16T11:02:15.136Z,16199.68
2024-01-16T11:03:15.350Z,21790.72
2024-01-16T11:04:16.166Z,28794.88
2024-01-16T11:05:16.791Z,28794.88
2024-01-16T11:06:17.305Z,28794.88
2024-01-16T11:07:17.997Z,28794.88
2024-01-16T11:08:18.547Z,28794.88
2024-01-16T11:09:19.055Z,28794.88
2024-01-16T11:10:19.205Z,42598.4
2024-01-16T11:11:19.469Z,42598.4
2024-01-16T11:12:19.877Z,42598.4
2024-01-16T11:13:20.028Z,42598.4
2024-01-16T11:14:21.204Z,42598.4
2024-01-16T11:15:24.858Z,47185.92
2024-01-16T11:16:25.043Z,47185.92
2024-01-16T11:17:25.251Z,47185.92
2024-01-16T11:18:25.689Z,47185.92
2024-01-16T11:19:32.500Z,29593.6
2024-01-16T11:21:21.831Z,24985.6
2024-01-16T11:22:22.517Z,24985.6
2024-01-16T11:23:23.099Z,24985.6
2024-01-16T11:24:23.514Z,24985.6
2024-01-16T11:25:23.680Z,24985.6
2024-01-16T11:26:24.608Z,24985.6
2024-01-16T11:27:25.250Z,24985.6
2024-01-16T11:28:25.387Z,24985.6
2024-01-16T11:29:25.579Z,24985.6
2024-01-16T11:30:25.851Z,24985.6
2024-01-16T11:31:26.039Z,24985.6
2024-01-16T11:32:27.956Z,24985.6
2024-01-16T11:33:34.009Z,30986.24
2024-01-16T11:34:35.254Z,30986.24
2024-01-16T11:35:35.733Z,30986.24
2024-01-16T11:36:35.987Z,30986.24
2024-01-16T11:37:36.129Z,39198.72
2024-01-16T11:38:36.293Z,39198.72
2024-01-16T11:39:36.514Z,39198.72
2024-01-16T11:40:36.677Z,39198.72
2024-01-16T11:41:42.363Z,26787.84
2024-01-16T11:42:43.383Z,25395.2
2024-01-16T11:43:43.553Z,35983.36
2024-01-16T11:44:43.887Z,35983.36
2024-01-16T11:45:44.926Z,35983.36
2024-01-16T11:46:45.075Z,35983.36
2024-01-16T11:47:45.400Z,35983.36
2024-01-16T11:48:46.020Z,35983.36
2024-01-16T11:49:46.610Z,35983.36
2024-01-16T11:50:46.882Z,35983.36
2024-01-16T11:51:47.157Z,35983.36
2024-01-16T11:52:47.317Z,24985.6
2024-01-16T11:53:47.514Z,24985.6
2024-01-16T11:54:47.957Z,32788.48
2024-01-16T11:55:48.181Z,32788.48
2024-01-16T11:56:49.151Z,32788.48
2024-01-16T11:57:49.805Z,32788.48
2024-01-16T11:58:49.957Z,32788.48
2024-01-16T11:59:50.158Z,32788.48
2024-01-16T12:00:50.650Z,32788.48
2024-01-16T12:01:50.885Z,32788.48
2024-01-16T12:02:51.168Z,32788.48
2024-01-16T12:03:51.768Z,46981.12
2024-01-16T12:04:51.932Z,46981.12
2024-01-16T12:05:52.136Z,46981.12
2024-01-16T12:06:52.754Z,32194.56
2024-01-16T12:07:53.402Z,32194.56
2024-01-16T12:08:54.119Z,32194.56
2024-01-16T12:09:54.497Z,32194.56
2024-01-16T12:10:54.648Z,43991.04
2024-01-16T12:11:54.795Z,57384.96
2024-01-16T12:12:55.011Z,57384.96
2024-01-16T12:13:55.183Z,57384.96
2024-01-16T12:14:55.467Z,57384.96
2024-01-16T12:15:56.197Z,57384.96
2024-01-16T12:16:56.341Z,57384.96
2024-01-16T12:17:56.787Z,57384.96
2024-01-16T12:18:57.743Z,57384.96
2024-01-16T12:19:58.259Z,39198.72
2024-01-16T12:20:58.728Z,39198.72
2024-01-16T12:21:58.946Z,27381.76
2024-01-16T12:22:59.078Z,18595.84
2024-01-16T12:24:04.320Z,18595.84
2024-01-16T12:25:18.336Z,15790.08
2024-01-16T12:26:18.531Z,15790.08
2024-01-16T12:27:18.774Z,15790.08
2024-01-16T12:28:24.389Z,15790.08
2024-01-16T12:29:34.564Z,15595.52
2024-01-16T12:30:34.853Z,15595.52
2024-01-16T12:31:35.099Z,15595.52
2024-01-16T12:32:35.298Z,15595.52
2024-01-16T12:33:35.821Z,15595.52
2024-01-16T12:34:36.628Z,15595.52
2024-01-16T12:35:37.402Z,15595.52
2024-01-16T12:36:38.259Z,15595.52
2024-01-16T12:37:38.422Z,15595.52
2024-01-16T12:38:38.588Z,15595.52
2024-01-16T12:39:38.893Z,15595.52
2024-01-16T12:40:39.045Z,15595.52
2024-01-16T12:41:41.908Z,15595.52
2024-01-16T12:42:44.204Z,15390.72
2024-01-16T12:43:44.380Z,15390.72
2024-01-16T12:44:44.544Z,15390.72
2024-01-16T12:45:44.827Z,15390.72
2024-01-16T12:46:44.983Z,24186.88
2024-01-16T12:47:45.240Z,24186.88
2024-01-16T12:48:50.606Z,24186.88
2024-01-16T12:50:06.779Z,43376.64
2024-01-16T12:51:07.184Z,43376.64
2024-01-16T12:52:07.598Z,43376.64
2024-01-16T12:53:07.752Z,43376.64
2024-01-16T12:54:07.956Z,43376.64
2024-01-16T12:55:08.318Z,56975.36
2024-01-16T12:56:08.544Z,56975.36
2024-01-16T12:57:08.740Z,56975.36
2024-01-16T12:58:08.973Z,56975.36
2024-01-16T12:59:09.133Z,56975.36
2024-01-16T13:00:09.301Z,56975.36
2024-01-16T13:01:09.515Z,56975.36
2024-01-16T13:02:09.725Z,56975.36
2024-01-16T13:03:09.993Z,56975.36
2024-01-16T13:04:10.321Z,56975.36
2024-01-16T13:05:10.589Z,56975.36
2024-01-16T13:06:11.102Z,38584.32
2024-01-16T13:07:11.660Z,38584.32
2024-01-16T13:08:12.185Z,26398.72
2024-01-16T13:09:12.907Z,26398.72
2024-01-16T13:10:13.623Z,26398.72
2024-01-16T13:11:14.497Z,26398.72
2024-01-16T13:12:14.802Z,26398.72
2024-01-16T13:13:15.263Z,26398.72
2024-01-16T13:14:15.422Z,26398.72
2024-01-16T13:15:15.673Z,26398.72
2024-01-16T13:16:15.834Z,26398.72
2024-01-16T13:17:15.998Z,26398.72
2024-01-16T13:18:16.367Z,26398.72
2024-01-16T13:19:16.870Z,26398.72
2024-01-16T13:20:17.197Z,18391.04
2024-01-16T13:21:17.553Z,18391.04
2024-01-16T13:22:17.705Z,18391.04
2024-01-16T13:23:17.861Z,18391.04
2024-01-16T13:24:18.204Z,18391.04
2024-01-16T13:25:18.890Z,18391.04